createdAt,value
2019-02-26T00:00:42.308Z,74.16
2019-02-26T00:07:10.202Z,73.66
2019-02-26T00:09:40.550Z,73.19
2019-02-26T00:12:11.038Z,73.24
2019-02-26T00:14:43.014Z,73.15
2019-02-26T00:17:15.328Z,72.91
2019-02-26T00:19:45.728Z,72.92
2019-02-26T00:22:18.135Z,72.97
2019-02-26T00:24:48.184Z,72.99
2019-02-26T00:27:18.452Z,74.21
2019-02-26T00:29:50.814Z,74.84
2019-02-26T00:32:21.043Z,75.46
2019-02-26T00:34:53.085Z,75.20
2019-02-26T00:37:24.270Z,74.51
2019-02-26T00:39:56.383Z,73.89
2019-02-26T00:42:28.676Z,73.62
2019-02-26T00:45:02.357Z,72.94
2019-02-26T00:47:33.898Z,72.57
2019-02-26T00:50:04.679Z,72.54
2019-02-26T00:52:37.564Z,72.77
2019-02-26T00:55:09.454Z,72.43
2019-02-26T00:57:40.666Z,72.38
2019-02-26T01:00:14.176Z,73.18
2019-02-26T01:02:44.481Z,73.04
2019-02-26T01:05:15.881Z,72.89
2019-02-26T01:07:49.332Z,73.43
2019-02-26T01:10:21.107Z,73.16
2019-02-26T01:12:51.116Z,72.94
2019-02-26T01:15:22.988Z,73.27
2019-02-26T01:17:54.976Z,73.70
2019-02-26T01:20:27.528Z,74.24
2019-02-26T01:22:57.760Z,74.72
2019-02-26T01:25:28.279Z,74.49
2019-02-26T01:28:00.246Z,73.91
2019-02-26T01:30:33.172Z,73.40
2019-02-26T01:33:05.014Z,73.31
2019-02-26T01:35:35.587Z,72.90
2019-02-26T01:38:07.069Z,73.80
2019-02-26T01:40:39.516Z,73.48
2019-02-26T01:43:09.724Z,73.67
2019-02-26T01:45:40.092Z,73.06
2019-02-26T01:48:11.498Z,73.20
2019-02-26T01:50:42.699Z,74.21
2019-02-26T01:53:14.509Z,75.13
2019-02-26T01:55:45.935Z,75.43
2019-02-26T01:58:17.297Z,75.70
2019-02-26T02:00:47.667Z,75.74
2019-02-26T02:03:18.677Z,75.65
2019-02-26T02:05:50.799Z,75.64
2019-02-26T02:08:24.724Z,75.17
2019-02-26T02:10:58.863Z,74.86
2019-02-26T02:13:28.766Z,74.68
2019-02-26T02:15:59.709Z,74.93
2019-02-26T02:18:30.780Z,74.86
2019-02-26T02:21:01.230Z,75.05
2019-02-26T02:23:31.668Z,75.39
2019-02-26T02:26:04.129Z,74.95
2019-02-26T02:28:35.647Z,75.12
2019-02-26T02:31:06.264Z,74.95
2019-02-26T02:33:37.566Z,74.89
2019-02-26T02:36:11.507Z,75.23
2019-02-26T02:38:40.196Z,75.53
2019-02-26T02:41:11.323Z,74.99
2019-02-26T02:43:41.680Z,75.15
2019-02-26T02:46:12.156Z,75.19
2019-02-26T02:48:42.629Z,75.46
2019-02-26T02:51:13.875Z,75.51
2019-02-26T02:53:45.221Z,75.80
2019-02-26T02:56:17.961Z,75.78
2019-02-26T02:58:51.395Z,76.02
2019-02-26T03:01:22.961Z,75.96
2019-02-26T03:03:53.662Z,75.34
2019-02-26T03:06:28.105Z,75.31
2019-02-26T03:08:57.287Z,74.80
2019-02-26T03:11:27.725Z,75.12
2019-02-26T03:13:58.214Z,75.31
2019-02-26T03:16:28.645Z,75.41
2019-02-26T03:18:58.965Z,75.21
2019-02-26T03:21:30.634Z,74.92
2019-02-26T03:24:03.350Z,75.04
2019-02-26T03:26:33.416Z,75.18
2019-02-26T03:29:03.814Z,75.92
2019-02-26T03:31:40.119Z,75.33
2019-02-26T03:34:10.600Z,75.48
2019-02-26T03:36:40.842Z,75.44
2019-02-26T03:39:10.605Z,74.37
2019-02-26T03:41:43.071Z,75.31
2019-02-26T03:44:13.196Z,75.32
2019-02-26T03:46:43.626Z,75.05
2019-02-26T03:49:13.993Z,74.85
2019-02-26T03:51:44.432Z,75.20
2019-02-26T03:54:14.902Z,74.73
2019-02-26T03:56:45.279Z,75.13
2019-02-26T03:59:15.670Z,75.90
2019-02-26T04:01:46.087Z,76.71
2019-02-26T04:04:16.458Z,76.90
2019-02-26T04:06:47.249Z,76.74
2019-02-26T04:09:19.597Z,76.60
2019-02-26T04:11:51.061Z,76.48
2019-02-26T04:14:22.774Z,76.53
2019-02-26T04:16:55.928Z,75.80
2019-02-26T04:19:26.900Z,75.41
2019-02-26T04:22:34.452Z,76.12
2019-02-26T04:25:27.061Z,76.91
2019-02-26T04:28:37.120Z,76.85
2019-02-26T04:31:54.529Z,76.74
2019-02-26T04:35:20.093Z,76.68
2019-02-26T04:39:16.488Z,76.68
2019-02-26T04:42:23.070Z,76.68
2019-02-26T04:45:37.910Z,76.48
2019-02-26T04:48:08.679Z,76.47
2019-02-26T04:50:41.381Z,76.42
2019-02-26T04:53:11.335Z,76.37
2019-02-26T04:55:44.716Z,76.37
2019-02-26T04:58:15.575Z,76.43
2019-02-26T05:00:45.981Z,76.05
2019-02-26T05:03:18.089Z,76.03
2019-02-26T05:05:51.441Z,76.12
2019-02-26T05:08:20.689Z,77.08
2019-02-26T05:10:52.462Z,76.61
2019-02-26T05:13:25.244Z,76.51
2019-02-26T05:15:55.354Z,76.61
2019-02-26T05:18:26.424Z,76.56
2019-02-26T05:20:59.310Z,76.08
2019-02-26T05:23:31.682Z,76.18
2019-02-26T05:26:05.210Z,76.35
2019-02-26T05:28:37.659Z,75.90
2019-02-26T05:31:08.473Z,75.94
2019-02-26T05:33:38.615Z,76.15
2019-02-26T05:36:11.573Z,76.34
2019-02-26T05:38:41.195Z,77.00
2019-02-26T05:41:11.666Z,76.84
2019-02-26T05:43:42.089Z,76.70
2019-02-26T05:46:12.505Z,76.84
2019-02-26T05:48:45.585Z,76.57
2019-02-26T05:51:14.959Z,76.96
2019-02-26T05:53:45.937Z,76.96
2019-02-26T05:56:17.150Z,77.27
2019-02-26T05:58:48.535Z,77.45
2019-02-26T06:01:20.015Z,77.83
2019-02-26T06:03:51.937Z,77.82
2019-02-26T06:06:22.710Z,77.96
2019-02-26T06:08:55.314Z,77.28
2019-02-26T06:11:28.347Z,77.05
2019-02-26T06:13:58.935Z,77.47
2019-02-26T06:16:31.536Z,77.04
2019-02-26T06:19:01.956Z,76.77
2019-02-26T06:21:32.430Z,76.51
2019-02-26T06:24:04.579Z,76.95
2019-02-26T06:26:36.079Z,77.13
2019-02-26T06:29:07.207Z,76.98
2019-02-26T06:31:39.586Z,76.92
2019-02-26T06:34:11.864Z,76.73
2019-02-26T06:36:42.484Z,76.62
2019-02-26T06:39:14.083Z,76.48
2019-02-26T06:41:46.742Z,76.91
2019-02-26T06:44:16.823Z,77.01
2019-02-26T06:46:47.175Z,77.07
2019-02-26T06:49:20.081Z,76.96
2019-02-26T06:51:52.043Z,77.04
2019-02-26T06:54:22.676Z,76.45
2019-02-26T06:56:54.195Z,76.38
2019-02-26T06:59:33.872Z,76.19
2019-02-26T07:02:03.156Z,76.02
2019-02-26T07:04:33.405Z,76.11
2019-02-26T07:07:04.444Z,76.50
2019-02-26T07:09:36.863Z,76.65
2019-02-26T07:12:08.070Z,76.77
2019-02-26T07:14:38.571Z,76.09
2019-02-26T07:17:09.056Z,75.55
2019-02-26T07:19:39.486Z,75.25
2019-02-26T07:22:11.560Z,75.46
2019-02-26T07:24:44.538Z,75.34
2019-02-26T07:27:14.536Z,75.43
2019-02-26T07:29:47.092Z,75.37
2019-02-26T07:32:17.991Z,75.22
2019-02-26T07:34:51.682Z,75.00
2019-02-26T07:37:21.580Z,74.95
2019-02-26T07:39:52.108Z,75.02
2019-02-26T07:42:22.546Z,74.12
2019-02-26T07:44:52.914Z,73.54
2019-02-26T07:47:24.409Z,73.23
2019-02-26T07:49:58.634Z,72.08
2019-02-26T07:52:28.460Z,70.83
2019-02-26T07:54:59.773Z,69.14
2019-02-26T07:57:30.255Z,68.79
2019-02-26T08:00:00.700Z,67.72
2019-02-26T08:02:32.619Z,65.54
2019-02-26T08:05:03.161Z,64.06
2019-02-26T08:07:33.458Z,61.47
2019-02-26T08:10:06.080Z,57.94
2019-02-26T08:12:38.045Z,56.44
2019-02-26T08:15:12.612Z,53.62
2019-02-26T08:17:45.621Z,50.83
2019-02-26T08:20:16.689Z,47.98
2019-02-26T08:22:49.011Z,44.00
2019-02-26T08:25:19.310Z,40.36
2019-02-26T08:27:51.650Z,38.12
2019-02-26T08:30:24.179Z,37.85
2019-02-26T08:32:56.090Z,38.59
2019-02-26T08:35:26.045Z,39.66
2019-02-26T08:37:56.511Z,39.60
2019-02-26T08:40:26.878Z,38.84
2019-02-26T08:42:57.281Z,36.61
2019-02-26T08:45:27.539Z,35.79
2019-02-26T08:47:57.983Z,34.02
2019-02-26T08:50:30.767Z,34.74
2019-02-26T08:53:00.648Z,34.12
2019-02-26T08:55:31.076Z,32.29
2019-02-26T08:58:01.511Z,31.04
2019-02-26T09:00:34.197Z,29.93
2019-02-26T09:03:04.073Z,29.85
2019-02-26T09:05:34.914Z,29.76
2019-02-26T09:08:08.490Z,30.75
2019-02-26T09:10:41.170Z,30.90
2019-02-26T09:13:11.466Z,32.17
2019-02-26T09:15:43.215Z,33.23
2019-02-26T09:18:13.724Z,33.97
2019-02-26T09:20:44.184Z,34.14
2019-02-26T09:23:18.872Z,34.83
2019-02-26T09:25:51.495Z,34.06
2019-02-26T09:28:20.072Z,33.61
2019-02-26T09:30:50.784Z,32.83
2019-02-26T09:33:21.093Z,32.80
2019-02-26T09:35:52.115Z,32.21
2019-02-26T09:38:25.554Z,30.84
2019-02-26T09:40:57.120Z,30.26
2019-02-26T09:43:27.662Z,29.64
2019-02-26T09:45:58.129Z,30.02
2019-02-26T09:48:28.580Z,29.73
2019-02-26T09:50:59.091Z,29.74
2019-02-26T09:53:29.500Z,29.43
2019-02-26T09:55:59.940Z,29.39
2019-02-26T09:58:30.420Z,28.59
2019-02-26T10:01:00.904Z,28.37
2019-02-26T10:03:33.230Z,28.93
2019-02-26T10:06:03.465Z,28.56
2019-02-26T10:08:33.839Z,28.34
2019-02-26T10:11:04.907Z,28.02
2019-02-26T10:13:35.499Z,28.85
2019-02-26T10:16:06.438Z,28.62
2019-02-26T10:18:38.344Z,28.50
2019-02-26T10:21:11.076Z,27.61
2019-02-26T10:23:40.968Z,26.82
2019-02-26T10:26:11.375Z,26.50
2019-02-26T10:28:42.700Z,25.95
2019-02-26T10:31:13.977Z,26.79
2019-02-26T10:33:46.319Z,27.11
2019-02-26T10:36:18.251Z,27.27
2019-02-26T10:38:50.369Z,28.28
2019-02-26T10:41:21.250Z,28.14
2019-02-26T10:43:51.744Z,28.83
2019-02-26T10:46:22.060Z,30.35
2019-02-26T10:48:52.870Z,30.79
2019-02-26T10:51:26.030Z,30.94
2019-02-26T10:53:57.526Z,32.22
2019-02-26T10:56:28.706Z,33.67
2019-02-26T10:59:05.300Z,34.00
2019-02-26T11:01:33.706Z,35.14
2019-02-26T11:04:04.763Z,36.68
2019-02-26T11:06:38.739Z,38.75
2019-02-26T11:09:14.307Z,39.32
2019-02-26T11:11:44.269Z,39.48
2019-02-26T11:14:17.351Z,40.01
2019-02-26T11:16:46.818Z,40.19
2019-02-26T11:19:17.277Z,40.17
2019-02-26T11:21:50.088Z,40.15
2019-02-26T11:24:19.707Z,40.47
2019-02-26T11:26:50.179Z,40.18
2019-02-26T11:29:20.532Z,40.10
2019-02-26T11:31:50.846Z,41.07
2019-02-26T11:34:21.361Z,40.21
2019-02-26T11:36:54.226Z,40.62
2019-02-26T11:39:23.991Z,41.46
2019-02-26T11:41:56.245Z,40.41
2019-02-26T11:44:27.742Z,40.35
2019-02-26T11:46:58.386Z,40.53
2019-02-26T11:49:28.688Z,40.25
2019-02-26T11:51:59.106Z,40.12
2019-02-26T11:54:34.392Z,37.96
2019-02-26T11:57:04.530Z,37.85
2019-02-26T11:59:36.404Z,37.20
2019-02-26T12:02:07.683Z,34.27
2019-02-26T12:04:38.029Z,33.68
2019-02-26T12:07:09.812Z,30.43
2019-02-26T12:09:40.708Z,30.80
2019-02-26T12:12:12.482Z,28.28
2019-02-26T12:14:44.108Z,28.77
2019-02-26T12:17:15.009Z,29.02
2019-02-26T12:19:45.517Z,27.64
2019-02-26T12:22:17.924Z,27.53
2019-02-26T12:24:52.989Z,27.19
2019-02-26T12:27:23.645Z,26.27
2019-02-26T12:29:54.567Z,27.63
2019-02-26T12:32:27.536Z,27.25
2019-02-26T12:34:57.331Z,26.71
2019-02-26T12:37:27.883Z,26.70
2019-02-26T12:39:58.545Z,26.42
2019-02-26T12:42:29.008Z,26.50
2019-02-26T12:45:01.844Z,26.38
2019-02-26T12:47:31.657Z,26.72
2019-02-26T12:50:05.217Z,26.16
2019-02-26T12:52:34.243Z,27.66
2019-02-26T12:55:08.183Z,27.88
2019-02-26T12:57:37.864Z,27.67
2019-02-26T13:00:20.067Z,28.18
2019-02-26T13:02:50.009Z,28.70
2019-02-26T13:05:23.017Z,29.40
2019-02-26T13:07:54.838Z,30.19
2019-02-26T13:10:26.253Z,29.37
2019-02-26T13:13:00.082Z,29.10
2019-02-26T13:15:28.969Z,28.22
2019-02-26T13:17:59.427Z,28.52
2019-02-26T13:20:29.974Z,29.70
2019-02-26T13:23:16.320Z,29.97
2019-02-26T13:25:32.659Z,29.84
2019-02-26T13:28:03.210Z,29.04
2019-02-26T13:30:33.572Z,28.32
2019-02-26T13:33:10.132Z,28.22
2019-02-26T13:35:36.277Z,28.61
2019-02-26T13:38:06.765Z,29.22
2019-02-26T13:40:38.646Z,29.90
2019-02-26T13:43:10.171Z,30.40
2019-02-26T13:45:40.765Z,30.82
2019-02-26T13:48:11.362Z,31.08
2019-02-26T13:50:42.025Z,31.82
2019-02-26T13:53:12.444Z,31.68
2019-02-26T13:55:42.873Z,32.15
2019-02-26T13:58:13.329Z,32.73
2019-02-26T14:00:43.774Z,33.16
2019-02-26T14:03:14.262Z,34.38
2019-02-26T14:05:44.748Z,34.69
2019-02-26T14:08:15.226Z,35.42
2019-02-26T14:10:45.743Z,34.80
2019-02-26T14:13:16.105Z,35.15
2019-02-26T14:15:46.564Z,33.64
2019-02-26T14:18:17.047Z,33.61
2019-02-26T14:20:47.655Z,33.03
2019-02-26T14:23:18.148Z,32.84
2019-02-26T14:25:49.889Z,33.10
2019-02-26T14:28:20.345Z,33.17
2019-02-26T14:30:50.874Z,33.58
2019-02-26T14:33:21.216Z,33.33
2019-02-26T14:35:51.878Z,32.43
2019-02-26T14:38:22.404Z,31.13
2019-02-26T14:40:52.935Z,30.61
2019-02-26T14:43:23.409Z,30.44
2019-02-26T14:45:53.876Z,30.86
2019-02-26T14:48:24.310Z,31.29
2019-02-26T14:50:54.798Z,31.18
2019-02-26T14:53:25.163Z,32.18
2019-02-26T14:55:55.562Z,32.99
2019-02-26T14:58:26.079Z,33.07
2019-02-26T15:00:58.209Z,33.89
2019-02-26T15:03:28.832Z,34.37
2019-02-26T15:05:59.355Z,34.81
2019-02-26T15:08:29.962Z,34.83
2019-02-26T15:11:00.525Z,34.65
2019-02-26T15:13:30.897Z,35.00
2019-02-26T15:16:01.499Z,35.05
2019-02-26T15:18:32.209Z,35.26
2019-02-26T15:21:02.700Z,35.69
2019-02-26T15:23:33.250Z,35.46
2019-02-26T15:26:03.637Z,35.35
2019-02-26T15:28:34.191Z,36.00
2019-02-26T15:31:26.616Z,36.16
2019-02-26T15:33:57.042Z,36.17
2019-02-26T15:36:27.511Z,35.37
2019-02-26T15:38:59.795Z,36.42
2019-02-26T15:41:30.146Z,36.67
2019-02-26T15:50:02.532Z,37.94
2019-02-26T15:52:32.993Z,38.06
2019-02-26T15:55:03.574Z,38.11
2019-02-26T15:57:34.126Z,37.43
2019-02-26T16:19:23.559Z,40.34
2019-02-26T16:21:53.968Z,40.96
2019-02-26T16:24:24.466Z,41.81
2019-02-26T16:26:55.020Z,41.41
2019-02-26T16:29:25.500Z,42.39
2019-02-26T16:31:57.299Z,43.00
2019-02-26T16:34:27.846Z,43.27
2019-02-26T16:36:58.178Z,44.03
2019-02-26T16:39:28.770Z,44.77
2019-02-26T16:41:59.461Z,45.17
2019-02-26T16:44:30.013Z,45.19
2019-02-26T16:47:00.537Z,45.81
2019-02-26T16:49:30.966Z,46.55
2019-02-26T16:52:01.587Z,46.94
2019-02-26T16:54:32.108Z,47.30
2019-02-26T16:57:02.693Z,47.46
2019-02-26T16:59:33.209Z,47.71
2019-02-26T17:02:03.729Z,48.27
2019-02-26T17:04:34.323Z,48.42
2019-02-26T17:07:04.796Z,49.44
2019-02-26T17:09:35.143Z,49.91
2019-02-26T17:12:05.972Z,49.80
2019-02-26T17:14:37.169Z,49.95
2019-02-26T17:17:07.836Z,50.55
2019-02-26T17:19:38.402Z,51.14
2019-02-26T17:22:09.093Z,51.55
2019-02-26T17:24:39.558Z,51.72
2019-02-26T17:27:10.176Z,52.47
2019-02-26T17:29:41.688Z,54.29
2019-02-26T17:32:12.099Z,54.30
2019-02-26T17:34:42.828Z,54.45
2019-02-26T17:37:13.336Z,53.86
2019-02-26T17:39:44.230Z,54.00
2019-02-26T17:42:15.636Z,54.46
2019-02-26T17:44:46.358Z,55.12
2019-02-26T17:47:17.143Z,55.42
2019-02-26T17:49:47.970Z,56.42
2019-02-26T17:52:18.486Z,57.19
2019-02-26T17:54:49.795Z,57.56
2019-02-26T17:57:20.207Z,57.61
2019-02-26T17:59:52.707Z,57.87
2019-02-26T18:02:27.402Z,58.13
2019-02-26T18:04:58.478Z,58.44
2019-02-26T18:07:30.013Z,58.06
2019-02-26T18:10:00.411Z,58.43
2019-02-26T18:12:30.926Z,58.53
2019-02-26T18:15:01.392Z,58.50
2019-02-26T18:17:31.951Z,58.40
2019-02-26T18:20:02.374Z,58.08
2019-02-26T18:22:33.012Z,58.17
2019-02-26T18:25:03.713Z,58.73
2019-02-26T18:27:34.470Z,58.55
2019-02-26T18:30:06.035Z,58.90
2019-02-26T18:32:36.572Z,59.01
2019-02-26T18:35:07.139Z,59.55
2019-02-26T18:37:46.021Z,59.76
2019-02-26T18:40:10.455Z,60.18
2019-02-26T18:42:41.355Z,60.36
2019-02-26T18:45:18.916Z,60.94
2019-02-26T18:47:49.367Z,61.06
2019-02-26T18:50:19.853Z,62.50
2019-02-26T18:52:50.394Z,64.17
2019-02-26T18:55:21.160Z,64.51
2019-02-26T18:57:51.605Z,64.01
2019-02-26T19:00:25.963Z,63.51
2019-02-26T19:02:56.814Z,63.59
2019-02-26T19:05:27.428Z,63.75
2019-02-26T19:07:57.955Z,63.59
2019-02-26T19:10:28.412Z,64.06
2019-02-26T19:13:02.402Z,64.67
2019-02-26T19:15:31.316Z,64.43
2019-02-26T19:18:02.647Z,63.75
2019-02-26T19:20:33.774Z,63.38
2019-02-26T19:23:04.383Z,63.20
2019-02-26T19:25:41.393Z,62.83
2019-02-26T19:28:09.964Z,63.28
2019-02-26T19:30:40.536Z,64.37
2019-02-26T19:33:11.239Z,64.78
2019-02-26T19:35:41.782Z,64.45
2019-02-26T19:38:12.326Z,64.43
2019-02-26T19:40:43.758Z,64.36
2019-02-26T19:43:14.333Z,64.55
2019-02-26T19:45:45.065Z,64.39
2019-02-26T19:48:15.767Z,64.66
2019-02-26T19:50:48.726Z,65.02
2019-02-26T19:53:18.573Z,64.89
2019-02-26T19:55:50.030Z,64.55
2019-02-26T19:58:20.559Z,64.48
2019-02-26T20:00:53.145Z,64.56
2019-02-26T20:03:23.632Z,64.56
2019-02-26T20:05:54.294Z,64.70
2019-02-26T20:08:24.882Z,64.82
2019-02-26T20:10:55.385Z,64.82
2019-02-26T20:13:25.805Z,65.12
2019-02-26T20:15:56.421Z,65.13
2019-02-26T20:18:26.947Z,64.91
2019-02-26T20:20:58.760Z,65.49
2019-02-26T20:23:29.381Z,65.49
2019-02-26T20:25:59.888Z,65.39
2019-02-26T20:28:30.286Z,65.28
2019-02-26T20:31:00.878Z,65.68
2019-02-26T20:33:31.371Z,65.51
2019-02-26T20:36:01.956Z,65.59
2019-02-26T20:38:35.206Z,65.48
2019-02-26T20:41:05.042Z,65.82
2019-02-26T20:43:36.800Z,65.44
